• Join FlightAware (Why Join?)
  • Login
  • US Flag 
01:20AM EDT


 

Airport Tracker/Info


-or-


 

Live Flight TrackerFlight Track Log ✈ DAL6225 ✈ 12-Nov-2013 ✈ KPWM - KLGA

Flight Track Log - Related Links

Times and Time Zones

All times are in EST time to prevent confusion due to time zone crossing. See the DAL6225 flight status page for this flight to view local times or setup timezone preferences in your user account.

Time Position Orientation Groundspeed Altitude Reporting Facility
EST Latitude Longitude Course Direction KTS MPH feet Rate Location/Type
05:50AM 43.6469 -70.3717 251° West 158 182 2,300  Level Boston Center
05:51AM 43.6556 -70.4569 278° West 223 257 4,400 2,220 Climbing Boston Center
05:52AM 43.6731 -70.5422 286° West 231 266 6,800 2,640 Climbing Boston Center
05:53AM 43.6911 -70.6328 285° West 242 278 9,800 2,160 Climbing Boston Center
05:54AM 43.7067 -70.7275 283° West 254 292 11,200 1,860 Climbing Boston Center
05:55AM 43.6811 -70.8286 251° West 276 318 13,600 1,860 Climbing Boston Center
05:56AM 43.2499 -70.8287 251° West  Level Estimated
05:56AM 43.6497 -70.9328 247° West 290 334 15,000  Level Boston Center
05:57AM 43.6175 -71.0417 248° West 305 351 16,600 1,620 Climbing Boston Center
05:58AM 43.5817 -71.1611 248° West 313 360 18,300 1,380 Climbing Boston Center
05:59AM 43.5547 -71.2567 249° West 314 361 19,500 1,260 Climbing Boston Center
06:00AM 43.5200 -71.3667 247° West 315 362 20,800 1,200 Climbing Boston Center
06:01AM 43.4850 -71.4814 247° West 326 375 21,900 960 Climbing Boston Center
06:02AM 43.4497 -71.5967 247° West 328 377 22,900 960 Climbing Boston Center
06:03AM 43.4147 -71.7147 248° West 334 384 23,900 1,020 Climbing Boston Center
06:04AM 43.3778 -71.8317 247° West 335 386 25,000 960 Climbing Boston Center
06:06AM 43.3425 -71.9497 248° West 335 386 25,900 480 Climbing Boston Center
06:06AM 43.3044 -72.0683 246° West 338 389 26,000  Climbing Boston Center
06:07AM 43.2589 -72.2150 247° West 349 402 26,000  Level Boston Center
06:09AM 43.2231 -72.3308 247° West 335 386 26,000  Level Boston Center
06:10AM 43.1878 -72.4453 247° West 330 380 26,000  Level Boston Center
06:11AM 43.1506 -72.5628 247° West 336 387 26,000  Level Boston Center
06:12AM 43.1164 -72.6692 246° West 336 387 26,000 -60 Level Boston Center
06:13AM 43.0786 -72.7886 247° West 340 391 25,900 -300 Descending Boston Center
06:14AM 43.0414 -72.9047 246° West 336 387 25,400 -540 Descending Boston Center
06:15AM 43.0008 -73.0289 246° West 336 387 24,900 -600 Descending Boston Center
06:16AM 42.9633 -73.1467 247° West 339 390 24,300 -840 Descending Boston Center
06:17AM 42.9258 -73.2631 246° West 339 390 23,300 -1,020 Descending Boston Center
06:18AM 42.8883 -73.3769 246° West 334 384 22,300 -660 Descending Boston Center
06:19AM 42.8517 -73.4892 246° West 330 380 22,000 -540 Descending Boston Center
06:20AM 42.8153 -73.6025 246° West 330 380 21,300 -900 Descending Boston Center
06:21AM 42.7786 -73.7106 245° Southwest 320 368 20,300 -660 Descending Boston Center
06:22AM 42.7175 -73.7903 224° Southwest 326 375 20,000 -180 Descending Boston Center
06:23AM 42.5931 -73.7700 173° South 381 438 20,000 -120 Level Boston Center
06:24AM 42.4883 -73.7500 172° South 383 441 19,800 -840 Descending Boston Center
06:25AM 42.3822 -73.7269 171° South 384 442 18,400 -900 Descending Boston Center
06:26AM 42.2822 -73.7308 182° South 358 412 18,000 -240 Descending Boston Center
06:27AM 42.1844 -73.7381 183° South 353 406 18,000  Level Boston Center
06:28AM 42.0803 -73.7464 183° South 347 399 18,000 -600 Level Boston Center
06:29AM 41.9844 -73.7528 183° South 346 398 16,800 -1,380 Descending Boston Center
06:30AM 41.8925 -73.7614 184° South 334 384 15,300 -1,440 Descending Boston Center
06:31AM 41.7964 -73.7683 183° South 345 397 13,900 -1,320 Descending Boston Center
06:32AM 41.6981 -73.7758 183° South 351 404 12,700 -1,200 Descending Boston Center
06:33AM 41.6000 -73.7819 183° South 352 405 11,500 -1,080 Descending Boston Center
06:34AM 41.5069 -73.7894 183° South 332 382 10,500 -1,080 Descending Boston Center
06:35AM 41.4333 -73.7833 176° South 269 310 9,600 -900 Descending New York TRACON
06:35AM 41.3833 -73.8000 194° South 265 305 9,000 -300 Descending New York TRACON
06:37AM 41.3000 -73.7500 156° South 296 341 9,000 -240 Level New York TRACON
06:38AM 41.2333 -73.7000 151° Southeast 297 342 8,500 -900 Descending New York TRACON
06:38AM 41.1667 -73.6500 151° Southeast 292 336 7,300 -1,380 Descending New York TRACON
06:39AM 41.1000 -73.6000 151° Southeast 272 313 5,900 -1,320 Descending New York TRACON
06:40AM 41.0333 -73.5833 169° South 263 303 4,800 -1,020 Descending New York TRACON
06:41AM 40.9667 -73.5667 169° South 267 307 4,000 -600 Descending New York TRACON
06:42AM 40.8833 -73.5667 180° South 260 299 3,700 -720 Descending New York TRACON
06:43AM 40.8333 -73.5833 194° South 268 308 2,800 -960 Descending New York TRACON
06:44AM 40.7667 -73.6000 191° South 273 314 2,000 -420 Descending New York TRACON
06:45AM 40.7000 -73.6500 210° Southwest 213 245 2,000 -180 Level New York TRACON
06:46AM 40.7000 -73.7000 270° West 161 185 1,700 -180 Descending New York TRACON
06:47AM 40.7167 -73.7333 303° West 132 152 1,700 -180 Level New York TRACON
06:48AM 40.7333 -73.7833 294° West 130 150 1,400 -600 Descending New York TRACON
06:49AM 40.7500 -73.8167 303° West 119 137 600 -660 Descending New York TRACON
06:50AM 40.7667 -73.8500 303° West 120 138 200 -480 Descending New York TRACON